createdAt,value
2022-12-25T00:01:22.495Z,101359.70
2022-12-25T00:03:50.436Z,101363.98
2022-12-25T00:06:18.278Z,101364.38
2022-12-25T00:08:45.099Z,101365.13
2022-12-25T00:11:14.806Z,101368.23
2022-12-25T00:13:42.164Z,101367.65
2022-12-25T00:16:12.957Z,101372.95
2022-12-25T00:18:39.697Z,101379.98
2022-12-25T00:21:07.568Z,101382.58
2022-12-25T00:23:35.588Z,101379.06
2022-12-25T00:26:08.367Z,101379.91
2022-12-25T00:28:36.286Z,101382.41
2022-12-25T00:31:11.369Z,101382.38
2022-12-25T00:33:40.294Z,101385.95
2022-12-25T00:36:08.791Z,101387.27
2022-12-25T00:38:37.397Z,101390.34
2022-12-25T00:41:06.778Z,101386.67
2022-12-25T00:43:33.551Z,101381.23
2022-12-25T00:46:02.950Z,101383.60
2022-12-25T00:48:30.560Z,101386.13
2022-12-25T00:50:59.776Z,101384.71
2022-12-25T00:53:28.218Z,101386.09
2022-12-25T00:55:58.208Z,101384.24
2022-12-25T00:58:27.441Z,101386.37
2022-12-25T01:00:54.677Z,101385.99
2022-12-25T01:03:21.453Z,101383.64
2022-12-25T01:06:03.338Z,101384.79
2022-12-25T01:08:33.309Z,101379.70
2022-12-25T01:11:09.663Z,101380.45
2022-12-25T01:13:37.882Z,101386.20
2022-12-25T01:16:09.676Z,101387.52
2022-12-25T01:18:38.209Z,101386.83
2022-12-25T01:21:12.158Z,101388.32
2022-12-25T01:23:39.165Z,101390.17
2022-12-25T01:26:10.940Z,101392.45
2022-12-25T01:28:38.679Z,101392.27
2022-12-25T01:31:14.130Z,101393.89
2022-12-25T01:33:42.320Z,101396.26
2022-12-25T01:36:35.360Z,101393.81
2022-12-25T01:39:01.976Z,101391.24
2022-12-25T01:41:29.588Z,101394.25
2022-12-25T01:43:56.150Z,101395.80
2022-12-25T01:46:22.871Z,101394.10
2022-12-25T01:48:50.270Z,101397.71
2022-12-25T01:51:50.847Z,101398.39
2022-12-25T01:54:23.915Z,101395.27
2022-12-25T01:56:53.576Z,101394.34
2022-12-25T01:59:24.828Z,101398.81
2022-12-25T02:01:51.719Z,101402.80
2022-12-25T02:04:40.443Z,101403.80
2022-12-25T02:07:12.794Z,101401.36
2022-12-25T02:09:39.548Z,101402.50
2022-12-25T02:12:08.604Z,101398.63
2022-12-25T02:14:37.500Z,101398.58
2022-12-25T02:17:26.054Z,101398.19
2022-12-25T02:20:11.238Z,101398.60
2022-12-25T02:22:46.987Z,101397.76
2022-12-25T02:25:43.620Z,101401.67
2022-12-25T02:28:21.561Z,101405.09
2022-12-25T02:31:18.465Z,101406.63
2022-12-25T02:34:05.024Z,101407.06
2022-12-25T02:36:40.972Z,101404.88
2022-12-25T02:39:42.788Z,101404.38
2022-12-25T02:42:16.825Z,101406.75
2022-12-25T02:45:08.862Z,101406.84
2022-12-25T02:47:57.792Z,101407.66
2022-12-25T02:51:01.717Z,101402.64
2022-12-25T02:53:48.655Z,101402.38
2022-12-25T02:56:34.779Z,101402.70
2022-12-25T02:59:21.386Z,101404.28
2022-12-25T03:02:06.868Z,101402.05
2022-12-25T03:04:52.965Z,101400.55
2022-12-25T03:07:23.642Z,101398.36
2022-12-25T03:10:15.562Z,101396.91
2022-12-25T03:12:54.525Z,101398.08
2022-12-25T03:15:40.557Z,101401.05
2022-12-25T03:18:12.193Z,101402.28
2022-12-25T03:20:58.202Z,101399.70
2022-12-25T03:23:50.481Z,101397.70
2022-12-25T03:26:36.315Z,101395.02
2022-12-25T03:29:03.742Z,101393.58
2022-12-25T03:31:56.647Z,101395.91
2022-12-25T03:34:49.564Z,101399.27
2022-12-25T03:37:45.396Z,101396.87
2022-12-25T03:40:49.511Z,101394.93
2022-12-25T03:44:02.745Z,101391.56
2022-12-25T03:46:53.016Z,101395.55
2022-12-25T03:49:45.780Z,101394.56
2022-12-25T03:52:35.875Z,101393.30
2022-12-25T03:55:27.447Z,101393.17
2022-12-25T03:58:12.849Z,101397.24
2022-12-25T04:00:58.396Z,101398.03
2022-12-25T04:03:44.024Z,101397.03
2022-12-25T04:06:29.361Z,101399.73
2022-12-25T04:09:14.547Z,101402.58
2022-12-25T04:12:02.777Z,101400.07
2022-12-25T04:14:59.485Z,101401.02
2022-12-25T04:17:44.730Z,101403.23
2022-12-25T04:20:30.315Z,101403.52
2022-12-25T04:23:15.740Z,101403.33
2022-12-25T04:26:00.974Z,101402.30
2022-12-25T04:28:46.715Z,101399.75
2022-12-25T04:31:32.285Z,101399.71
2022-12-25T04:34:17.808Z,101401.08
2022-12-25T04:36:44.853Z,101403.14
2022-12-25T04:39:11.769Z,101404.56
2022-12-25T04:41:38.500Z,101405.64
2022-12-25T04:44:05.214Z,101409.05
2022-12-25T04:46:31.976Z,101412.05
2022-12-25T04:48:58.748Z,101410.00
2022-12-25T04:51:26.241Z,101416.61
2022-12-25T04:53:54.162Z,101420.19
2022-12-25T04:56:21.550Z,101423.45
2022-12-25T04:58:48.674Z,101426.71
2022-12-25T05:01:15.688Z,101424.16
2022-12-25T05:03:42.866Z,101430.92
2022-12-25T05:06:09.860Z,101433.77
2022-12-25T05:08:37.136Z,101435.63
2022-12-25T05:11:12.937Z,101437.77
2022-12-25T05:13:40.110Z,101440.58
2022-12-25T05:16:09.154Z,101443.56
2022-12-25T05:18:36.801Z,101442.24
2022-12-25T05:21:04.641Z,101440.73
2022-12-25T05:23:31.761Z,101436.43
2022-12-25T05:25:58.874Z,101438.44
2022-12-25T05:28:25.574Z,101440.85
2022-12-25T05:30:56.004Z,101446.40
2022-12-25T05:33:22.903Z,101441.42
2022-12-25T05:35:50.167Z,101439.73
2022-12-25T05:38:16.874Z,101441.19
2022-12-25T05:40:43.617Z,101439.39
2022-12-25T05:43:10.298Z,101441.10
2022-12-25T05:45:37.057Z,101440.52
2022-12-25T05:48:03.945Z,101435.30
2022-12-25T05:50:30.710Z,101439.40
2022-12-25T05:53:12.334Z,101435.63
2022-12-25T05:55:41.255Z,101439.79
2022-12-25T05:58:08.869Z,101443.07
2022-12-25T06:00:36.720Z,101444.80
2022-12-25T06:03:03.848Z,101439.77
2022-12-25T06:05:31.219Z,101443.98
2022-12-25T06:07:58.035Z,101446.36
2022-12-25T06:10:24.777Z,101447.02
2022-12-25T06:12:51.466Z,101452.30
2022-12-25T06:15:18.393Z,101461.87
2022-12-25T06:17:45.116Z,101461.66
2022-12-25T06:20:11.826Z,101460.91
2022-12-25T06:22:38.595Z,101465.70
2022-12-25T06:25:05.969Z,101468.98
2022-12-25T06:27:32.704Z,101475.93
2022-12-25T06:29:59.442Z,101479.88
2022-12-25T06:32:26.140Z,101482.51
2022-12-25T06:34:53.005Z,101489.30
2022-12-25T06:37:20.028Z,101496.54
2022-12-25T06:39:48.190Z,101499.31
2022-12-25T06:42:15.019Z,101494.55
2022-12-25T06:44:41.707Z,101495.91
2022-12-25T06:47:08.443Z,101497.42
2022-12-25T06:49:35.154Z,101492.41
2022-12-25T06:52:01.915Z,101494.15
2022-12-25T06:54:28.702Z,101491.58
2022-12-25T06:56:55.428Z,101491.59
2022-12-25T06:59:22.191Z,101491.54
2022-12-25T07:01:56.957Z,101492.77
2022-12-25T07:04:23.822Z,101491.42
2022-12-25T07:06:50.562Z,101491.18
2022-12-25T07:09:17.359Z,101494.52
2022-12-25T07:11:44.399Z,101494.31
2022-12-25T07:14:23.710Z,101496.84
2022-12-25T07:16:51.541Z,101500.27
2022-12-25T07:19:19.339Z,101502.66
2022-12-25T07:21:46.439Z,101502.58
2022-12-25T07:24:22.326Z,101503.37
2022-12-25T07:26:50.761Z,101502.18
2022-12-25T07:29:19.639Z,101505.24
2022-12-25T07:31:46.956Z,101508.45
2022-12-25T07:34:13.666Z,101510.27
2022-12-25T07:36:40.386Z,101506.84
2022-12-25T07:39:07.074Z,101513.26
2022-12-25T07:41:33.795Z,101518.48
2022-12-25T07:44:13.236Z,101526.20
2022-12-25T07:46:39.998Z,101528.65
2022-12-25T07:49:06.654Z,101532.55
2022-12-25T07:51:33.459Z,101535.94
2022-12-25T07:54:00.147Z,101540.02
2022-12-25T07:56:26.917Z,101540.20
2022-12-25T07:58:53.742Z,101542.69
2022-12-25T08:01:23.687Z,101546.29
2022-12-25T08:03:52.925Z,101554.45
2022-12-25T08:06:21.661Z,101557.50
2022-12-25T08:08:48.849Z,101557.34
2022-12-25T08:11:15.613Z,101558.73
2022-12-25T08:13:42.352Z,101562.44
2022-12-25T08:16:10.653Z,101565.73
2022-12-25T08:18:39.002Z,101566.26
2022-12-25T08:21:09.015Z,101565.23
2022-12-25T08:23:37.744Z,101561.69
2022-12-25T08:26:06.038Z,101564.31
2022-12-25T08:28:34.395Z,101568.16
2022-12-25T08:31:14.238Z,101568.50
2022-12-25T08:33:41.374Z,101568.64
2022-12-25T08:36:10.316Z,101576.63
2022-12-25T08:38:37.836Z,101579.92
2022-12-25T08:41:04.503Z,101581.38
2022-12-25T08:43:31.312Z,101587.77
2022-12-25T08:45:57.952Z,101590.88
2022-12-25T08:48:24.965Z,101585.96
2022-12-25T08:50:52.975Z,101588.52
2022-12-25T08:53:20.542Z,101590.76
2022-12-25T08:55:47.187Z,101590.25
2022-12-25T08:58:17.165Z,101594.95
2022-12-25T09:00:43.870Z,101596.96
2022-12-25T09:03:10.674Z,101601.13
2022-12-25T09:05:37.842Z,101597.25
2022-12-25T09:08:04.810Z,101600.45
2022-12-25T09:10:31.538Z,101608.09
2022-12-25T09:12:58.226Z,101612.32
2022-12-25T09:15:24.952Z,101616.15
2022-12-25T09:17:51.721Z,101618.80
2022-12-25T09:20:18.476Z,101619.79
2022-12-25T09:22:45.405Z,101625.09
2022-12-25T09:25:12.191Z,101627.86
2022-12-25T09:27:39.433Z,101633.47
2022-12-25T09:30:07.147Z,101635.45
2022-12-25T09:32:33.843Z,101637.90
2022-12-25T09:35:00.685Z,101631.34
2022-12-25T09:37:28.835Z,101628.92
2022-12-25T09:39:55.592Z,101631.36
2022-12-25T09:42:25.486Z,101634.89
2022-12-25T09:45:04.680Z,101635.86
2022-12-25T09:47:35.579Z,101637.73
2022-12-25T09:50:38.140Z,101640.17
2022-12-25T09:53:14.811Z,101640.25
2022-12-25T09:55:49.940Z,101639.61
2022-12-25T09:58:16.659Z,101641.26
2022-12-25T10:00:50.535Z,101641.11
2022-12-25T10:03:23.369Z,101642.27
2022-12-25T10:06:04.484Z,101640.44
2022-12-25T10:08:51.396Z,101638.39
2022-12-25T10:11:48.479Z,101638.80
2022-12-25T10:14:57.598Z,101639.78
2022-12-25T10:17:43.049Z,101640.02
2022-12-25T10:20:25.013Z,101634.28
2022-12-25T10:22:57.277Z,101630.91
2022-12-25T10:25:25.536Z,101631.66
2022-12-25T10:27:59.747Z,101626.45
2022-12-25T10:30:28.860Z,101629.56
2022-12-25T10:32:57.771Z,101627.50
2022-12-25T10:35:27.416Z,101628.38
2022-12-25T10:38:06.129Z,101627.89
2022-12-25T10:40:38.000Z,101629.98
2022-12-25T10:43:15.460Z,101632.38
2022-12-25T10:45:47.381Z,101626.31
2022-12-25T10:48:28.937Z,101625.74
2022-12-25T10:50:56.694Z,101626.90
2022-12-25T10:53:28.771Z,101622.31
2022-12-25T10:55:59.884Z,101619.61
2022-12-25T10:58:27.507Z,101613.11
2022-12-25T11:01:02.171Z,101608.27
2022-12-25T11:03:51.995Z,101609.52
2022-12-25T11:06:36.767Z,101607.77
2022-12-25T11:09:03.714Z,101601.60
2022-12-25T11:11:30.954Z,101593.86
2022-12-25T11:14:00.789Z,101594.86
2022-12-25T11:16:36.252Z,101594.27
2022-12-25T11:19:21.545Z,101592.09
2022-12-25T11:21:53.947Z,101587.43
2022-12-25T11:24:23.022Z,101585.25
2022-12-25T11:26:53.682Z,101582.25
2022-12-25T11:29:45.297Z,101574.98
2022-12-25T11:32:35.173Z,101573.39
2022-12-25T11:35:03.040Z,101569.09
2022-12-25T11:37:35.753Z,101568.45
2022-12-25T11:40:02.570Z,101569.20
2022-12-25T11:42:38.630Z,101570.00
2022-12-25T11:45:20.773Z,101568.30
2022-12-25T11:48:02.378Z,101568.09
2022-12-25T11:50:51.487Z,101570.59
2022-12-25T11:53:27.424Z,101564.17
2022-12-25T11:56:00.042Z,101561.90
2022-12-25T11:58:46.723Z,101560.72
2022-12-25T12:01:19.236Z,101558.08
2022-12-25T12:03:46.056Z,101560.55
2022-12-25T12:06:24.725Z,101561.14
2022-12-25T12:08:56.711Z,101558.66
2022-12-25T12:11:41.303Z,101558.95
2022-12-25T12:14:39.662Z,101559.20
2022-12-25T12:17:12.089Z,101558.30
2022-12-25T12:19:39.511Z,101559.98
2022-12-25T12:22:06.351Z,101555.65
2022-12-25T12:24:43.034Z,101551.92
2022-12-25T12:27:32.741Z,101546.30
2022-12-25T12:30:00.615Z,101541.72
2022-12-25T12:32:33.270Z,101543.95
2022-12-25T12:35:05.759Z,101544.54
2022-12-25T12:37:37.914Z,101543.02
2022-12-25T12:40:07.867Z,101543.73
2022-12-25T12:42:50.499Z,101538.86
2022-12-25T12:45:20.839Z,101537.05
2022-12-25T12:47:50.054Z,101534.42
2022-12-25T12:50:34.010Z,101538.65
2022-12-25T12:53:24.063Z,101538.57
2022-12-25T12:55:52.087Z,101540.53
2022-12-25T12:58:52.557Z,101538.42
2022-12-25T13:01:28.445Z,101543.22
2022-12-25T13:04:13.176Z,101541.08
2022-12-25T13:06:43.881Z,101542.89
2022-12-25T13:09:20.872Z,101540.20
2022-12-25T13:11:48.005Z,101541.66
2022-12-25T13:14:18.997Z,101546.66
2022-12-25T13:16:48.928Z,101549.76
2022-12-25T13:19:22.286Z,101547.58
2022-12-25T13:21:58.348Z,101552.34
2022-12-25T13:24:31.158Z,101555.27
2022-12-25T13:26:59.569Z,101550.42
2022-12-25T13:29:34.998Z,101550.92
2022-12-25T13:32:04.150Z,101552.89
2022-12-25T13:34:40.128Z,101552.27
2022-12-25T13:37:28.515Z,101551.58
2022-12-25T13:40:01.221Z,101554.77
2022-12-25T13:42:36.215Z,101557.41
2022-12-25T13:45:07.457Z,101554.98
2022-12-25T13:47:36.298Z,101562.73
2022-12-25T13:50:29.904Z,101562.83
2022-12-25T13:52:58.993Z,101563.08
2022-12-25T13:55:29.910Z,101563.44
2022-12-25T13:58:00.068Z,101563.81
2022-12-25T14:00:45.535Z,101562.30
2022-12-25T14:03:30.402Z,101563.61
2022-12-25T14:05:59.875Z,101567.40
2022-12-25T14:08:30.850Z,101567.46
2022-12-25T14:11:00.374Z,101567.79
2022-12-25T14:13:28.862Z,101565.85
2022-12-25T14:15:57.884Z,101568.09
2022-12-25T14:18:25.941Z,101571.58
2022-12-25T14:21:05.126Z,101569.81
2022-12-25T14:23:47.137Z,101570.78
2022-12-25T14:26:32.906Z,101570.15
2022-12-25T14:29:02.606Z,101569.85
2022-12-25T14:31:29.671Z,101571.55
2022-12-25T14:33:59.767Z,101569.92
2022-12-25T14:36:27.722Z,101570.54
2022-12-25T14:38:59.359Z,101575.98
2022-12-25T14:41:38.187Z,101577.92
2022-12-25T14:44:25.819Z,101579.69
2022-12-25T14:47:03.916Z,101579.40
2022-12-25T14:49:32.658Z,101579.19
2022-12-25T14:51:59.492Z,101575.27
2022-12-25T14:54:27.161Z,101582.23
2022-12-25T14:56:56.295Z,101581.33
2022-12-25T14:59:26.876Z,101578.48
2022-12-25T15:01:59.447Z,101580.31
2022-12-25T15:04:27.340Z,101579.90
2022-12-25T15:07:07.498Z,101586.42
2022-12-25T15:09:36.025Z,101588.71
2022-12-25T15:12:03.612Z,101590.16
2022-12-25T15:14:31.737Z,101590.70
2022-12-25T15:17:01.392Z,101596.29
2022-12-25T15:19:36.827Z,101598.44
2022-12-25T15:22:04.849Z,101603.92
2022-12-25T15:24:31.623Z,101603.54
2022-12-25T15:27:00.347Z,101601.55
2022-12-25T15:30:00.057Z,101600.50
2022-12-25T15:32:24.179Z,101605.36
2022-12-25T15:34:51.349Z,101605.94
2022-12-25T15:37:19.017Z,101610.98
2022-12-25T15:39:46.481Z,101608.55
2022-12-25T15:42:17.764Z,101604.73
2022-12-25T15:44:45.477Z,101603.04
2022-12-25T15:47:13.467Z,101607.67
2022-12-25T15:49:41.154Z,101606.40
2022-12-25T15:52:11.561Z,101605.64
2022-12-25T15:54:38.428Z,101607.02
2022-12-25T15:57:10.621Z,101605.60
2022-12-25T15:59:37.303Z,101605.08
2022-12-25T16:02:15.853Z,101607.88
2022-12-25T16:04:43.411Z,101606.35
2022-12-25T16:07:25.951Z,101608.70
2022-12-25T16:09:52.641Z,101609.15
2022-12-25T16:12:20.027Z,101605.50
2022-12-25T16:14:46.729Z,101610.39
2022-12-25T16:17:15.761Z,101612.91
2022-12-25T16:19:44.827Z,101608.15
2022-12-25T16:22:20.476Z,101608.27
2022-12-25T16:24:48.165Z,101602.14
2022-12-25T16:27:14.899Z,101604.64
2022-12-25T16:29:42.351Z,101608.08
2022-12-25T16:32:10.533Z,101608.20
2022-12-25T16:34:37.246Z,101603.96
2022-12-25T16:37:04.031Z,101608.43
2022-12-25T16:39:30.984Z,101608.38
2022-12-25T16:41:57.732Z,101607.30
2022-12-25T16:44:24.498Z,101611.69
2022-12-25T16:46:51.301Z,101606.54
2022-12-25T16:49:18.098Z,101608.55
2022-12-25T16:51:44.787Z,101605.11
2022-12-25T16:54:11.500Z,101605.39
2022-12-25T16:56:38.482Z,101609.31
2022-12-25T16:59:05.186Z,101611.42
2022-12-25T17:01:32.117Z,101612.58
2022-12-25T17:04:03.481Z,101612.72
2022-12-25T17:06:30.462Z,101621.73
2022-12-25T17:08:59.530Z,101618.20
2022-12-25T17:11:30.297Z,101619.14
2022-12-25T17:14:02.600Z,101618.35
2022-12-25T17:16:32.687Z,101605.88
2022-12-25T17:19:05.328Z,101601.74
2022-12-25T17:21:34.333Z,101600.27
2022-12-25T17:24:03.820Z,101602.80
2022-12-25T17:26:32.832Z,101605.27
2022-12-25T17:29:00.408Z,101612.09
2022-12-25T17:31:27.245Z,101614.08
2022-12-25T17:33:54.179Z,101613.75
2022-12-25T17:36:21.895Z,101614.09
2022-12-25T17:38:48.746Z,101610.90
2022-12-25T17:41:17.409Z,101613.60
2022-12-25T17:43:45.820Z,101617.38
2022-12-25T17:46:20.570Z,101615.53
2022-12-25T17:48:50.096Z,101615.29
2022-12-25T17:51:21.447Z,101618.81
2022-12-25T17:53:51.829Z,101613.06
2022-12-25T17:56:19.812Z,101614.70
2022-12-25T17:58:51.755Z,101613.28
2022-12-25T18:01:19.051Z,101613.36
2022-12-25T18:03:47.273Z,101615.23
2022-12-25T18:06:20.357Z,101615.77
2022-12-25T18:08:47.875Z,101626.87
2022-12-25T18:11:16.254Z,101627.45
2022-12-25T18:13:45.182Z,101623.60
2022-12-25T18:16:13.162Z,101623.70
2022-12-25T18:18:40.710Z,101630.09
2022-12-25T18:21:08.359Z,101635.89
2022-12-25T18:23:36.355Z,101637.97
2022-12-25T18:26:07.131Z,101631.44
2022-12-25T18:28:34.836Z,101634.35
2022-12-25T18:31:01.870Z,101635.58
2022-12-25T18:33:28.706Z,101642.08
2022-12-25T18:36:00.286Z,101637.99
2022-12-25T18:38:27.837Z,101631.08
2022-12-25T18:40:54.959Z,101623.15
2022-12-25T18:43:22.032Z,101623.05
2022-12-25T18:46:09.008Z,101624.75
2022-12-25T18:48:36.494Z,101625.88
2022-12-25T18:51:06.926Z,101624.64
2022-12-25T18:53:34.792Z,101624.09
2022-12-25T18:56:10.694Z,101626.71
2022-12-25T18:58:38.424Z,101624.71
2022-12-25T19:01:16.389Z,101620.23
2022-12-25T19:03:43.925Z,101620.52
2022-12-25T19:06:17.767Z,101622.04
2022-12-25T19:08:44.641Z,101622.50
2022-12-25T19:11:11.338Z,101619.91
2022-12-25T19:13:38.056Z,101622.77
2022-12-25T19:16:05.154Z,101626.16
2022-12-25T19:18:32.225Z,101632.10
2022-12-25T19:21:04.074Z,101630.40
2022-12-25T19:23:31.288Z,101633.42
2022-12-25T19:25:58.023Z,101623.20
2022-12-25T19:28:25.225Z,101619.14
2022-12-25T19:30:55.158Z,101617.73
2022-12-25T19:33:22.869Z,101618.23
2022-12-25T19:35:49.777Z,101619.79
2022-12-25T19:38:16.551Z,101623.30
2022-12-25T19:41:00.434Z,101621.66
2022-12-25T19:43:29.971Z,101619.27
2022-12-25T19:46:00.235Z,101618.81
2022-12-25T19:48:30.072Z,101616.70
2022-12-25T19:50:57.534Z,101622.30
2022-12-25T19:53:24.687Z,101624.38
2022-12-25T19:55:52.618Z,101620.67
2022-12-25T19:58:23.607Z,101622.46
2022-12-25T20:01:02.366Z,101620.72
2022-12-25T20:03:29.242Z,101626.34
2022-12-25T20:05:56.602Z,101631.63
2022-12-25T20:08:24.512Z,101632.23
2022-12-25T20:10:51.495Z,101636.19
2022-12-25T20:13:18.202Z,101637.34
2022-12-25T20:15:44.965Z,101641.98
2022-12-25T20:18:11.816Z,101645.34
2022-12-25T20:20:38.536Z,101650.94
2022-12-25T20:23:06.222Z,101647.51
2022-12-25T20:25:32.964Z,101641.09
2022-12-25T20:27:59.684Z,101641.27
2022-12-25T20:30:26.415Z,101639.92
2022-12-25T20:32:53.131Z,101644.21
2022-12-25T20:35:19.958Z,101645.45
2022-12-25T20:37:46.681Z,101649.53
2022-12-25T20:40:13.404Z,101654.59
2022-12-25T20:42:40.140Z,101652.04
2022-12-25T20:45:07.781Z,101658.80
2022-12-25T20:47:35.333Z,101658.75
2022-12-25T20:50:02.244Z,101656.24
2022-12-25T20:52:29.069Z,101656.71
2022-12-25T20:54:55.836Z,101656.67
2022-12-25T20:57:22.593Z,101660.68
2022-12-25T20:59:49.715Z,101661.54
2022-12-25T21:02:35.590Z,101668.16
2022-12-25T21:05:03.953Z,101676.98
2022-12-25T21:07:30.811Z,101678.27
2022-12-25T21:09:57.888Z,101677.85
2022-12-25T21:12:24.899Z,101681.33
2022-12-25T21:14:51.700Z,101679.30
2022-12-25T21:17:18.425Z,101681.55
2022-12-25T21:19:45.175Z,101686.38
2022-12-25T21:22:12.606Z,101679.62
2022-12-25T21:24:39.301Z,101674.34
2022-12-25T21:27:05.999Z,101678.50
2022-12-25T21:29:32.700Z,101682.55
2022-12-25T21:32:18.212Z,101688.11
2022-12-25T21:34:45.774Z,101687.29
2022-12-25T21:37:12.490Z,101678.46
2022-12-25T21:39:39.207Z,101680.23
2022-12-25T21:42:05.999Z,101672.97
2022-12-25T21:44:32.701Z,101674.54
2022-12-25T21:46:59.407Z,101681.39
2022-12-25T21:49:44.520Z,101682.95
2022-12-25T21:52:11.272Z,101682.63
2022-12-25T21:54:38.090Z,101684.81
2022-12-25T21:57:05.315Z,101688.91
2022-12-25T21:59:32.045Z,101685.27
2022-12-25T22:01:59.720Z,101686.27
2022-12-25T22:04:26.984Z,101685.71
2022-12-25T22:07:12.437Z,101686.05
2022-12-25T22:09:39.258Z,101686.20
2022-12-25T22:12:30.142Z,101688.89
2022-12-25T22:15:03.135Z,101689.72
2022-12-25T22:17:54.791Z,101687.02
2022-12-25T22:20:34.727Z,101690.23
2022-12-25T22:23:01.875Z,101684.70
2022-12-25T22:25:28.937Z,101688.55
2022-12-25T22:27:56.181Z,101688.30
2022-12-25T22:30:26.088Z,101690.60
2022-12-25T22:32:53.611Z,101691.21
2022-12-25T22:35:21.194Z,101689.98
2022-12-25T22:37:48.463Z,101691.95
2022-12-25T22:40:17.216Z,101692.36
2022-12-25T22:42:44.324Z,101691.88
2022-12-25T22:45:12.101Z,101690.42
2022-12-25T22:47:38.946Z,101693.34
2022-12-25T22:50:07.198Z,101693.15
2022-12-25T22:52:34.012Z,101693.73
2022-12-25T22:55:01.080Z,101693.71
2022-12-25T22:57:27.861Z,101692.81
2022-12-25T22:59:54.577Z,101695.29
2022-12-25T23:02:22.161Z,101693.75
2022-12-25T23:04:49.142Z,101691.13
2022-12-25T23:07:16.600Z,101688.43
2022-12-25T23:09:44.189Z,101687.83
2022-12-25T23:12:30.117Z,101688.59
2022-12-25T23:14:57.069Z,101688.40
2022-12-25T23:17:56.491Z,101689.59
2022-12-25T23:20:41.727Z,101692.86
2022-12-25T23:23:34.342Z,101690.36
2022-12-25T23:26:10.384Z,101693.27
2022-12-25T23:28:58.245Z,101689.41
2022-12-25T23:31:29.752Z,101685.17
2022-12-25T23:33:57.398Z,101684.79
2022-12-25T23:36:24.166Z,101689.72
2022-12-25T23:38:50.909Z,101689.50
2022-12-25T23:41:17.645Z,101690.58
2022-12-25T23:43:44.491Z,101692.15
2022-12-25T23:46:11.259Z,101688.23
2022-12-25T23:48:38.058Z,101694.14
2022-12-25T23:51:06.152Z,101697.77
2022-12-25T23:53:33.992Z,101695.05
2022-12-25T23:56:01.271Z,101694.43
2022-12-25T23:58:28.614Z,101692.75
